Hauptseite
METAR-TAF:

METAR-TAF

Flughäfen :

Flugplatz St. Gallen-Altenrhein

St. Gallen, Schweiz

Breite: 47-29-06N, Länge: 009-33-43E, Höhe: 398 m

Beobachtung

Neuester Wetterbericht von vor 24 Minuten, um 15:20 UTC
Wind 7 kt aus Süd, variierte zwischen Südost und Südwest
Temperatur 23°C
Luftfeuchtigkeit 25%
Luftdruck 1013 hPa
Sichtweite 10 km oder mehr
keine Wolken unter 1500 m und keine Kumulonimbus oder Gewitterwolken

METAR: LSZR 151520Z 18007KT 140V220 CAVOK 23/02 Q1013 NOSIG RMK M

Zeit: 17:44 (15:44 UTC)

Prognose

Neuester Wetterbericht von vor 1 Stunde und 19 Minuten, um 14:25 UTC
Gültige Prognose vom 15 um 15 UTC bis 15 um 24 UTC
Wind 10 kt aus Süd
Sichtweite 10 km oder mehr
keine Wolken unter 1500 m und keine Kumulonimbus oder Gewitterwolken
Zeitweise
vom 15 um 15 UTC bis 15 um 24 UTC
Wind 17 kt aus Süd, Böen bis zu 28 kt

TAF: LSZR 151425Z 1515/1524 18010KT CAVOK TEMPO 1515/1524 17017G28KT

Wetterbeobachtungen und Prognosen von mehr als 4000 Flughäfen (METAR und TAF Bericht).

Die verfügbaren Stationen werden durch gelbe und rote Markierungen auf der Karte dargestellt.

Führen Sie die Maus auf sie, um den Namen der Station zu sehen.

Darauf klicken, um die Beobachtung von Wetterbeobachtungen und Prognosen zu sehen.

Um die Karte zu ändern : klicken Sie auf den grünen Tasten mit einem schwarzen Kreuz Zum Vergrößern, auf den grünen Button mit einem Gedankenstrich zu verkleinern, oder auf die grünen Pfeile für benachbarte Karten.


METAR-TAF: